sensor_id;sensor_type;location;lat;lon;timestamp;P1;durP1;ratioP1;P2;durP2;ratioP2
58518;SDS011;44310;48.106;12.008;2022-12-07T00:01:23;12.15;;;4.15;;
58518;SDS011;44310;48.106;12.008;2022-12-07T00:03:52;14.10;;;4.07;;
58518;SDS011;44310;48.106;12.008;2022-12-07T00:06:23;10.80;;;3.72;;
58518;SDS011;44310;48.106;12.008;2022-12-07T00:08:50;11.73;;;3.90;;
58518;SDS011;44310;48.106;12.008;2022-12-07T00:11:18;7.70;;;3.60;;
58518;SDS011;44310;48.106;12.008;2022-12-07T00:13:51;7.80;;;3.42;;
58518;SDS011;44310;48.106;12.008;2022-12-07T00:16:22;9.07;;;3.40;;
58518;SDS011;44310;48.106;12.008;2022-12-07T00:18:51;7.60;;;3.13;;
58518;SDS011;44310;48.106;12.008;2022-12-07T00:21:20;6.50;;;3.22;;
58518;SDS011;44310;48.106;12.008;2022-12-07T00:23:49;7.00;;;3.30;;
58518;SDS011;44310;48.106;12.008;2022-12-07T00:26:21;7.73;;;3.13;;
58518;SDS011;44310;48.106;12.008;2022-12-07T00:28:56;7.93;;;3.00;;
58518;SDS011;44310;48.106;12.008;2022-12-07T00:31:26;7.18;;;2.95;;
58518;SDS011;44310;48.106;12.008;2022-12-07T00:33:54;6.65;;;3.00;;
58518;SDS011;44310;48.106;12.008;2022-12-07T00:36:22;5.20;;;3.15;;
58518;SDS011;44310;48.106;12.008;2022-12-07T00:38:53;6.20;;;3.13;;
58518;SDS011;44310;48.106;12.008;2022-12-07T00:41:24;12.00;;;3.43;;
58518;SDS011;44310;48.106;12.008;2022-12-07T00:43:52;6.15;;;2.95;;
58518;SDS011;44310;48.106;12.008;2022-12-07T00:46:20;7.72;;;3.13;;
58518;SDS011;44310;48.106;12.008;2022-12-07T00:48:48;13.25;;;4.00;;
58518;SDS011;44310;48.106;12.008;2022-12-07T00:51:17;13.63;;;3.47;;
58518;SDS011;44310;48.106;12.008;2022-12-07T00:53:45;9.95;;;3.38;;
58518;SDS011;44310;48.106;12.008;2022-12-07T00:56:17;10.55;;;3.80;;
58518;SDS011;44310;48.106;12.008;2022-12-07T00:58:50;6.97;;;3.58;;
58518;SDS011;44310;48.106;12.008;2022-12-07T01:01:29;9.95;;;3.30;;
58518;SDS011;44310;48.106;12.008;2022-12-07T01:04:01;11.45;;;3.40;;
58518;SDS011;44310;48.106;12.008;2022-12-07T01:06:28;11.77;;;3.75;;
58518;SDS011;44310;48.106;12.008;2022-12-07T01:08:56;9.75;;;3.60;;
58518;SDS011;44310;48.106;12.008;2022-12-07T01:11:25;10.57;;;3.30;;
58518;SDS011;44310;48.106;12.008;2022-12-07T01:13:54;9.63;;;3.50;;
58518;SDS011;44310;48.106;12.008;2022-12-07T01:16:24;13.63;;;3.83;;
58518;SDS011;44310;48.106;12.008;2022-12-07T01:18:55;15.73;;;4.30;;
58518;SDS011;44310;48.106;12.008;2022-12-07T01:21:24;18.20;;;4.68;;
58518;SDS011;44310;48.106;12.008;2022-12-07T01:23:54;18.33;;;4.38;;
58518;SDS011;44310;48.106;12.008;2022-12-07T01:26:23;13.13;;;4.05;;
58518;SDS011;44310;48.106;12.008;2022-12-07T01:28:51;16.55;;;4.05;;
58518;SDS011;44310;48.106;12.008;2022-12-07T01:31:22;16.05;;;4.68;;
58518;SDS011;44310;48.106;12.008;2022-12-07T01:33:51;11.73;;;3.72;;
58518;SDS011;44310;48.106;12.008;2022-12-07T01:36:22;24.97;;;5.87;;
58518;SDS011;44310;48.106;12.008;2022-12-07T01:38:55;10.93;;;3.75;;
58518;SDS011;44310;48.106;12.008;2022-12-07T01:41:24;12.07;;;3.38;;
58518;SDS011;44310;48.106;12.008;2022-12-07T01:44:11;11.68;;;3.90;;
58518;SDS011;44310;48.106;12.008;2022-12-07T01:46:47;12.15;;;3.30;;
58518;SDS011;44310;48.106;12.008;2022-12-07T01:49:38;13.13;;;3.83;;
58518;SDS011;44310;48.106;12.008;2022-12-07T01:52:13;11.45;;;3.10;;
58518;SDS011;44310;48.106;12.008;2022-12-07T01:54:57;7.95;;;3.38;;
58518;SDS011;44310;48.106;12.008;2022-12-07T01:57:28;8.70;;;2.97;;
58518;SDS011;44310;48.106;12.008;2022-12-07T01:59:57;8.00;;;2.90;;
58518;SDS011;44310;48.106;12.008;2022-12-07T02:02:29;9.85;;;3.08;;
58518;SDS011;44310;48.106;12.008;2022-12-07T02:05:02;13.57;;;3.90;;
58518;SDS011;44310;48.106;12.008;2022-12-07T02:07:30;5.95;;;2.90;;
58518;SDS011;44310;48.106;12.008;2022-12-07T02:10:14;13.40;;;3.50;;
58518;SDS011;44310;48.106;12.008;2022-12-07T02:12:44;7.63;;;3.10;;
58518;SDS011;44310;48.106;12.008;2022-12-07T02:15:17;7.28;;;2.90;;
58518;SDS011;44310;48.106;12.008;2022-12-07T02:20:26;10.43;;;3.43;;
58518;SDS011;44310;48.106;12.008;2022-12-07T02:23:25;12.75;;;3.53;;
58518;SDS011;44310;48.106;12.008;2022-12-07T02:29:17;9.32;;;3.13;;
58518;SDS011;44310;48.106;12.008;2022-12-07T02:31:57;15.05;;;4.00;;
58518;SDS011;44310;48.106;12.008;2022-12-07T02:34:55;13.07;;;3.77;;
58518;SDS011;44310;48.106;12.008;2022-12-07T02:40:20;11.63;;;3.40;;
58518;SDS011;44310;48.106;12.008;2022-12-07T02:42:55;15.37;;;4.50;;
58518;SDS011;44310;48.106;12.008;2022-12-07T02:45:30;28.17;;;6.90;;
58518;SDS011;44310;48.106;12.008;2022-12-07T02:47:59;17.98;;;4.22;;
58518;SDS011;44310;48.106;12.008;2022-12-07T02:50:27;22.50;;;5.65;;
58518;SDS011;44310;48.106;12.008;2022-12-07T02:52:54;24.00;;;6.25;;
58518;SDS011;44310;48.106;12.008;2022-12-07T02:55:23;19.95;;;5.20;;
58518;SDS011;44310;48.106;12.008;2022-12-07T03:00:35;26.88;;;5.93;;
58518;SDS011;44310;48.106;12.008;2022-12-07T03:03:32;28.13;;;6.10;;
58518;SDS011;44310;48.106;12.008;2022-12-07T03:06:06;25.33;;;5.90;;
58518;SDS011;44310;48.106;12.008;2022-12-07T03:08:55;14.07;;;4.75;;
58518;SDS011;44310;48.106;12.008;2022-12-07T03:11:30;22.17;;;5.32;;
58518;SDS011;44310;48.106;12.008;2022-12-07T03:14:16;27.98;;;5.43;;
58518;SDS011;44310;48.106;12.008;2022-12-07T03:16:50;22.88;;;5.78;;
58518;SDS011;44310;48.106;12.008;2022-12-07T03:19:26;27.60;;;5.67;;
58518;SDS011;44310;48.106;12.008;2022-12-07T03:21:55;34.28;;;6.57;;
58518;SDS011;44310;48.106;12.008;2022-12-07T03:24:33;23.77;;;5.55;;
58518;SDS011;44310;48.106;12.008;2022-12-07T03:27:06;24.85;;;5.70;;
58518;SDS011;44310;48.106;12.008;2022-12-07T03:29:53;16.70;;;4.68;;
58518;SDS011;44310;48.106;12.008;2022-12-07T03:32:27;18.27;;;4.85;;
58518;SDS011;44310;48.106;12.008;2022-12-07T03:37:56;13.60;;;3.92;;
58518;SDS011;44310;48.106;12.008;2022-12-07T03:40:30;14.57;;;4.05;;
58518;SDS011;44310;48.106;12.008;2022-12-07T03:43:21;16.63;;;4.50;;
58518;SDS011;44310;48.106;12.008;2022-12-07T03:45:55;12.07;;;3.42;;
58518;SDS011;44310;48.106;12.008;2022-12-07T03:51:28;10.77;;;3.20;;
58518;SDS011;44310;48.106;12.008;2022-12-07T03:53:59;10.73;;;3.70;;
58518;SDS011;44310;48.106;12.008;2022-12-07T03:56:42;10.35;;;3.22;;
58518;SDS011;44310;48.106;12.008;2022-12-07T03:59:11;9.10;;;3.10;;
58518;SDS011;44310;48.106;12.008;2022-12-07T04:01:41;27.17;;;5.80;;
58518;SDS011;44310;48.106;12.008;2022-12-07T04:04:09;18.00;;;5.00;;
58518;SDS011;44310;48.106;12.008;2022-12-07T04:06:37;8.93;;;3.58;;
58518;SDS011;44310;48.106;12.008;2022-12-07T04:09:04;15.00;;;3.70;;
58518;SDS011;44310;48.106;12.008;2022-12-07T04:11:31;12.13;;;4.28;;
58518;SDS011;44310;48.106;12.008;2022-12-07T04:13:58;12.75;;;3.50;;
58518;SDS011;44310;48.106;12.008;2022-12-07T04:16:44;15.88;;;3.60;;
58518;SDS011;44310;48.106;12.008;2022-12-07T04:19:13;9.30;;;3.67;;
58518;SDS011;44310;48.106;12.008;2022-12-07T04:21:42;7.18;;;3.05;;
58518;SDS011;44310;48.106;12.008;2022-12-07T04:24:11;10.02;;;3.60;;
58518;SDS011;44310;48.106;12.008;2022-12-07T04:26:39;10.93;;;3.37;;
58518;SDS011;44310;48.106;12.008;2022-12-07T04:29:07;5.25;;;3.22;;
58518;SDS011;44310;48.106;12.008;2022-12-07T04:31:35;10.50;;;3.30;;
58518;SDS011;44310;48.106;12.008;2022-12-07T04:34:02;11.70;;;3.20;;
58518;SDS011;44310;48.106;12.008;2022-12-07T04:36:30;7.75;;;3.10;;
58518;SDS011;44310;48.106;12.008;2022-12-07T04:38:58;8.23;;;3.30;;
58518;SDS011;44310;48.106;12.008;2022-12-07T04:41:25;14.85;;;3.80;;
58518;SDS011;44310;48.106;12.008;2022-12-07T04:43:56;9.95;;;3.80;;
58518;SDS011;44310;48.106;12.008;2022-12-07T04:46:25;14.18;;;3.85;;
58518;SDS011;44310;48.106;12.008;2022-12-07T04:48:54;13.82;;;3.83;;
58518;SDS011;44310;48.106;12.008;2022-12-07T04:51:22;14.68;;;4.78;;
58518;SDS011;44310;48.106;12.008;2022-12-07T04:53:51;30.67;;;6.75;;
58518;SDS011;44310;48.106;12.008;2022-12-07T04:56:19;15.93;;;4.75;;
58518;SDS011;44310;48.106;12.008;2022-12-07T04:58:46;13.65;;;4.50;;
58518;SDS011;44310;48.106;12.008;2022-12-07T05:01:15;13.00;;;4.13;;
58518;SDS011;44310;48.106;12.008;2022-12-07T05:03:43;22.52;;;5.65;;
58518;SDS011;44310;48.106;12.008;2022-12-07T05:06:11;18.83;;;5.03;;
58518;SDS011;44310;48.106;12.008;2022-12-07T05:08:39;19.23;;;4.85;;
58518;SDS011;44310;48.106;12.008;2022-12-07T05:11:07;11.98;;;3.53;;
58518;SDS011;44310;48.106;12.008;2022-12-07T05:13:35;23.48;;;5.38;;
58518;SDS011;44310;48.106;12.008;2022-12-07T05:16:03;22.75;;;5.55;;
58518;SDS011;44310;48.106;12.008;2022-12-07T05:18:30;13.23;;;4.22;;
58518;SDS011;44310;48.106;12.008;2022-12-07T05:20:57;22.92;;;5.85;;
58518;SDS011;44310;48.106;12.008;2022-12-07T05:23:24;17.38;;;5.15;;
58518;SDS011;44310;48.106;12.008;2022-12-07T05:25:51;16.42;;;4.40;;
58518;SDS011;44310;48.106;12.008;2022-12-07T05:28:18;12.73;;;3.78;;
58518;SDS011;44310;48.106;12.008;2022-12-07T05:30:45;10.73;;;3.58;;
58518;SDS011;44310;48.106;12.008;2022-12-07T05:33:12;10.52;;;3.65;;
58518;SDS011;44310;48.106;12.008;2022-12-07T05:35:39;7.93;;;3.45;;
58518;SDS011;44310;48.106;12.008;2022-12-07T05:38:07;7.93;;;3.37;;
58518;SDS011;44310;48.106;12.008;2022-12-07T05:40:34;23.67;;;6.05;;
58518;SDS011;44310;48.106;12.008;2022-12-07T05:43:01;14.17;;;4.03;;
58518;SDS011;44310;48.106;12.008;2022-12-07T05:45:30;8.25;;;3.70;;
58518;SDS011;44310;48.106;12.008;2022-12-07T05:47:57;14.32;;;5.47;;
58518;SDS011;44310;48.106;12.008;2022-12-07T05:50:24;15.38;;;4.20;;
58518;SDS011;44310;48.106;12.008;2022-12-07T05:52:52;13.52;;;3.72;;
58518;SDS011;44310;48.106;12.008;2022-12-07T05:55:19;8.88;;;3.00;;
58518;SDS011;44310;48.106;12.008;2022-12-07T05:57:46;7.53;;;3.47;;
58518;SDS011;44310;48.106;12.008;2022-12-07T06:00:32;10.48;;;3.47;;
58518;SDS011;44310;48.106;12.008;2022-12-07T06:02:59;8.93;;;3.15;;
58518;SDS011;44310;48.106;12.008;2022-12-07T06:05:26;8.93;;;3.53;;
58518;SDS011;44310;48.106;12.008;2022-12-07T06:07:53;11.60;;;3.30;;
58518;SDS011;44310;48.106;12.008;2022-12-07T06:10:21;9.75;;;3.08;;
58518;SDS011;44310;48.106;12.008;2022-12-07T06:12:48;6.38;;;2.78;;
58518;SDS011;44310;48.106;12.008;2022-12-07T06:15:15;7.45;;;3.28;;
58518;SDS011;44310;48.106;12.008;2022-12-07T06:17:42;6.63;;;2.70;;
58518;SDS011;44310;48.106;12.008;2022-12-07T06:20:09;4.05;;;2.67;;
58518;SDS011;44310;48.106;12.008;2022-12-07T06:22:36;11.45;;;3.88;;
58518;SDS011;44310;48.106;12.008;2022-12-07T06:25:03;21.02;;;5.00;;
58518;SDS011;44310;48.106;12.008;2022-12-07T06:27:34;12.45;;;4.93;;
58518;SDS011;44310;48.106;12.008;2022-12-07T06:30:02;12.20;;;4.17;;
58518;SDS011;44310;48.106;12.008;2022-12-07T06:32:33;13.80;;;4.13;;
58518;SDS011;44310;48.106;12.008;2022-12-07T06:35:00;14.65;;;4.50;;
58518;SDS011;44310;48.106;12.008;2022-12-07T06:37:27;18.00;;;5.55;;
58518;SDS011;44310;48.106;12.008;2022-12-07T06:39:54;20.15;;;4.97;;
58518;SDS011;44310;48.106;12.008;2022-12-07T06:42:22;23.38;;;6.53;;
58518;SDS011;44310;48.106;12.008;2022-12-07T06:44:49;23.15;;;5.90;;
58518;SDS011;44310;48.106;12.008;2022-12-07T06:47:16;18.67;;;5.07;;
58518;SDS011;44310;48.106;12.008;2022-12-07T06:50:03;17.00;;;4.82;;
58518;SDS011;44310;48.106;12.008;2022-12-07T06:52:32;10.20;;;4.50;;
58518;SDS011;44310;48.106;12.008;2022-12-07T06:54:59;14.35;;;4.72;;
58518;SDS011;44310;48.106;12.008;2022-12-07T06:57:26;13.10;;;4.40;;
58518;SDS011;44310;48.106;12.008;2022-12-07T06:59:53;10.85;;;4.32;;
58518;SDS011;44310;48.106;12.008;2022-12-07T07:02:20;9.85;;;4.20;;
58518;SDS011;44310;48.106;12.008;2022-12-07T07:04:48;14.55;;;4.63;;
58518;SDS011;44310;48.106;12.008;2022-12-07T07:07:15;11.25;;;3.92;;
58518;SDS011;44310;48.106;12.008;2022-12-07T07:09:42;21.45;;;6.28;;
58518;SDS011;44310;48.106;12.008;2022-12-07T07:12:09;55.75;;;12.38;;
58518;SDS011;44310;48.106;12.008;2022-12-07T07:14:36;31.38;;;8.27;;
58518;SDS011;44310;48.106;12.008;2022-12-07T07:17:03;20.05;;;6.47;;
58518;SDS011;44310;48.106;12.008;2022-12-07T07:19:30;20.83;;;5.47;;
58518;SDS011;44310;48.106;12.008;2022-12-07T07:21:57;44.05;;;8.63;;
58518;SDS011;44310;48.106;12.008;2022-12-07T07:24:24;30.45;;;7.63;;
58518;SDS011;44310;48.106;12.008;2022-12-07T07:26:51;31.33;;;8.00;;
58518;SDS011;44310;48.106;12.008;2022-12-07T07:29:18;36.43;;;7.93;;
58518;SDS011;44310;48.106;12.008;2022-12-07T07:31:45;28.90;;;7.87;;
58518;SDS011;44310;48.106;12.008;2022-12-07T07:34:12;26.13;;;7.20;;
58518;SDS011;44310;48.106;12.008;2022-12-07T07:36:40;21.05;;;5.95;;
58518;SDS011;44310;48.106;12.008;2022-12-07T07:39:07;21.58;;;6.22;;
58518;SDS011;44310;48.106;12.008;2022-12-07T07:41:34;23.08;;;6.30;;
58518;SDS011;44310;48.106;12.008;2022-12-07T07:44:01;20.98;;;5.03;;
58518;SDS011;44310;48.106;12.008;2022-12-07T07:46:28;17.25;;;5.53;;
58518;SDS011;44310;48.106;12.008;2022-12-07T07:48:55;16.83;;;5.30;;
58518;SDS011;44310;48.106;12.008;2022-12-07T07:51:22;18.70;;;6.00;;
58518;SDS011;44310;48.106;12.008;2022-12-07T07:53:49;25.83;;;6.60;;
58518;SDS011;44310;48.106;12.008;2022-12-07T07:56:16;20.83;;;5.20;;
58518;SDS011;44310;48.106;12.008;2022-12-07T07:58:43;23.70;;;6.18;;
58518;SDS011;44310;48.106;12.008;2022-12-07T08:01:10;21.90;;;5.75;;
58518;SDS011;44310;48.106;12.008;2022-12-07T08:03:40;21.08;;;5.70;;
58518;SDS011;44310;48.106;12.008;2022-12-07T08:06:07;15.38;;;4.93;;
58518;SDS011;44310;48.106;12.008;2022-12-07T08:08:34;13.18;;;4.90;;
58518;SDS011;44310;48.106;12.008;2022-12-07T08:11:01;12.52;;;4.88;;
58518;SDS011;44310;48.106;12.008;2022-12-07T08:13:32;11.82;;;4.50;;
58518;SDS011;44310;48.106;12.008;2022-12-07T08:16:02;11.77;;;4.05;;
58518;SDS011;44310;48.106;12.008;2022-12-07T08:18:31;11.45;;;4.45;;
58518;SDS011;44310;48.106;12.008;2022-12-07T08:21:03;29.33;;;7.22;;
58518;SDS011;44310;48.106;12.008;2022-12-07T08:23:31;19.98;;;5.65;;
58518;SDS011;44310;48.106;12.008;2022-12-07T08:26:09;23.38;;;6.53;;
58518;SDS011;44310;48.106;12.008;2022-12-07T08:28:38;21.52;;;5.97;;
58518;SDS011;44310;48.106;12.008;2022-12-07T08:31:07;17.33;;;4.82;;
58518;SDS011;44310;48.106;12.008;2022-12-07T08:33:37;12.70;;;4.65;;
58518;SDS011;44310;48.106;12.008;2022-12-07T08:36:05;18.63;;;5.10;;
58518;SDS011;44310;48.106;12.008;2022-12-07T08:38:37;22.50;;;5.32;;
58518;SDS011;44310;48.106;12.008;2022-12-07T08:41:06;12.93;;;4.70;;
58518;SDS011;44310;48.106;12.008;2022-12-07T08:43:34;13.03;;;4.63;;
58518;SDS011;44310;48.106;12.008;2022-12-07T08:48:56;11.43;;;4.10;;
58518;SDS011;44310;48.106;12.008;2022-12-07T08:51:29;10.85;;;4.03;;
58518;SDS011;44310;48.106;12.008;2022-12-07T08:53:56;12.52;;;4.05;;
58518;SDS011;44310;48.106;12.008;2022-12-07T08:56:27;10.95;;;3.65;;
58518;SDS011;44310;48.106;12.008;2022-12-07T08:58:54;7.13;;;3.55;;
58518;SDS011;44310;48.106;12.008;2022-12-07T09:01:21;5.15;;;3.53;;
58518;SDS011;44310;48.106;12.008;2022-12-07T09:03:49;7.53;;;3.57;;
58518;SDS011;44310;48.106;12.008;2022-12-07T09:06:16;5.50;;;3.10;;
58518;SDS011;44310;48.106;12.008;2022-12-07T09:08:46;7.07;;;3.00;;
58518;SDS011;44310;48.106;12.008;2022-12-07T09:11:16;5.05;;;2.88;;
58518;SDS011;44310;48.106;12.008;2022-12-07T09:13:43;4.57;;;3.15;;
58518;SDS011;44310;48.106;12.008;2022-12-07T09:16:10;6.05;;;3.20;;
58518;SDS011;44310;48.106;12.008;2022-12-07T09:18:37;7.25;;;3.08;;
58518;SDS011;44310;48.106;12.008;2022-12-07T09:21:04;5.63;;;3.00;;
58518;SDS011;44310;48.106;12.008;2022-12-07T09:23:32;5.72;;;2.78;;
58518;SDS011;44310;48.106;12.008;2022-12-07T09:25:59;9.85;;;3.95;;
58518;SDS011;44310;48.106;12.008;2022-12-07T09:28:33;10.13;;;3.65;;
58518;SDS011;44310;48.106;12.008;2022-12-07T09:31:01;11.98;;;4.22;;
58518;SDS011;44310;48.106;12.008;2022-12-07T09:33:53;17.60;;;5.55;;
58518;SDS011;44310;48.106;12.008;2022-12-07T09:36:24;29.08;;;6.75;;
58518;SDS011;44310;48.106;12.008;2022-12-07T09:38:53;21.75;;;5.63;;
58518;SDS011;44310;48.106;12.008;2022-12-07T09:41:20;19.73;;;4.95;;
58518;SDS011;44310;48.106;12.008;2022-12-07T09:43:49;15.20;;;4.15;;
58518;SDS011;44310;48.106;12.008;2022-12-07T09:46:17;16.58;;;4.68;;
58518;SDS011;44310;48.106;12.008;2022-12-07T09:48:46;15.20;;;4.20;;
58518;SDS011;44310;48.106;12.008;2022-12-07T09:53:50;13.07;;;3.60;;
58518;SDS011;44310;48.106;12.008;2022-12-07T09:56:19;32.75;;;7.53;;
58518;SDS011;44310;48.106;12.008;2022-12-07T09:58:47;57.63;;;11.77;;
58518;SDS011;44310;48.106;12.008;2022-12-07T10:01:17;37.72;;;9.50;;
58518;SDS011;44310;48.106;12.008;2022-12-07T10:03:53;38.38;;;9.20;;
58518;SDS011;44310;48.106;12.008;2022-12-07T10:06:24;35.90;;;8.07;;
58518;SDS011;44310;48.106;12.008;2022-12-07T10:08:52;28.80;;;6.88;;
58518;SDS011;44310;48.106;12.008;2022-12-07T10:11:19;21.75;;;5.72;;
58518;SDS011;44310;48.106;12.008;2022-12-07T10:13:47;15.77;;;4.67;;
58518;SDS011;44310;48.106;12.008;2022-12-07T10:18:50;10.32;;;3.63;;
58518;SDS011;44310;48.106;12.008;2022-12-07T10:21:22;12.52;;;4.68;;
58518;SDS011;44310;48.106;12.008;2022-12-07T10:26:38;75.15;;;15.85;;
58518;SDS011;44310;48.106;12.008;2022-12-07T10:29:20;52.47;;;12.02;;
58518;SDS011;44310;48.106;12.008;2022-12-07T10:31:56;31.95;;;8.20;;
58518;SDS011;44310;48.106;12.008;2022-12-07T10:34:27;39.80;;;9.63;;
58518;SDS011;44310;48.106;12.008;2022-12-07T10:37:15;26.00;;;7.28;;
58518;SDS011;44310;48.106;12.008;2022-12-07T10:39:49;24.33;;;6.20;;
58518;SDS011;44310;48.106;12.008;2022-12-07T10:42:22;24.23;;;5.80;;
58518;SDS011;44310;48.106;12.008;2022-12-07T10:45:09;20.10;;;5.63;;
58518;SDS011;44310;48.106;12.008;2022-12-07T11:01:50;13.38;;;3.80;;
58518;SDS011;44310;48.106;12.008;2022-12-07T11:07:37;15.25;;;4.53;;
58518;SDS011;44310;48.106;12.008;2022-12-07T11:10:26;9.75;;;3.60;;
58518;SDS011;44310;48.106;12.008;2022-12-07T11:19:28;8.82;;;2.80;;
58518;SDS011;44310;48.106;12.008;2022-12-07T11:22:20;8.98;;;3.40;;
58518;SDS011;44310;48.106;12.008;2022-12-07T11:38:41;34.33;;;8.60;;
58518;SDS011;44310;48.106;12.008;2022-12-07T11:41:12;59.05;;;13.02;;
58518;SDS011;44310;48.106;12.008;2022-12-07T11:46:18;115.97;;;22.10;;
58518;SDS011;44310;48.106;12.008;2022-12-07T11:48:54;111.30;;;20.47;;
58518;SDS011;44310;48.106;12.008;2022-12-07T11:51:31;91.72;;;16.88;;
58518;SDS011;44310;48.106;12.008;2022-12-07T11:54:03;63.67;;;12.80;;
58518;SDS011;44310;48.106;12.008;2022-12-07T11:56:38;73.22;;;14.52;;
58518;SDS011;44310;48.106;12.008;2022-12-07T11:59:20;63.75;;;13.90;;
58518;SDS011;44310;48.106;12.008;2022-12-07T12:01:57;82.55;;;17.02;;
58518;SDS011;44310;48.106;12.008;2022-12-07T12:07:30;70.18;;;14.52;;
58518;SDS011;44310;48.106;12.008;2022-12-07T12:10:24;51.85;;;11.73;;
58518;SDS011;44310;48.106;12.008;2022-12-07T12:16:20;35.15;;;9.00;;
58518;SDS011;44310;48.106;12.008;2022-12-07T12:22:00;73.10;;;15.38;;
58518;SDS011;44310;48.106;12.008;2022-12-07T12:24:38;39.45;;;9.43;;
58518;SDS011;44310;48.106;12.008;2022-12-07T12:27:22;22.60;;;5.22;;
58518;SDS011;44310;48.106;12.008;2022-12-07T12:29:54;20.52;;;5.65;;
58518;SDS011;44310;48.106;12.008;2022-12-07T12:32:35;18.45;;;5.82;;
58518;SDS011;44310;48.106;12.008;2022-12-07T12:35:21;15.35;;;4.60;;
58518;SDS011;44310;48.106;12.008;2022-12-07T12:37:54;21.05;;;5.95;;
58518;SDS011;44310;48.106;12.008;2022-12-07T12:42:57;17.67;;;5.07;;
58518;SDS011;44310;48.106;12.008;2022-12-07T12:45:28;13.45;;;4.47;;
58518;SDS011;44310;48.106;12.008;2022-12-07T12:48:01;14.65;;;4.10;;
58518;SDS011;44310;48.106;12.008;2022-12-07T12:51:06;10.95;;;3.83;;
58518;SDS011;44310;48.106;12.008;2022-12-07T12:54:09;10.38;;;3.67;;
58518;SDS011;44310;48.106;12.008;2022-12-07T12:56:43;22.80;;;5.80;;
58518;SDS011;44310;48.106;12.008;2022-12-07T12:59:23;16.90;;;5.07;;
58518;SDS011;44310;48.106;12.008;2022-12-07T13:02:15;17.27;;;4.00;;
58518;SDS011;44310;48.106;12.008;2022-12-07T13:05:01;17.65;;;5.63;;
58518;SDS011;44310;48.106;12.008;2022-12-07T13:18:00;14.82;;;4.20;;
58518;SDS011;44310;48.106;12.008;2022-12-07T13:23:25;10.03;;;3.27;;
58518;SDS011;44310;48.106;12.008;2022-12-07T13:25:59;14.88;;;4.40;;
58518;SDS011;44310;48.106;12.008;2022-12-07T13:28:50;8.10;;;3.00;;
58518;SDS011;44310;48.106;12.008;2022-12-07T13:33:48;7.75;;;2.90;;
58518;SDS011;44310;48.106;12.008;2022-12-07T13:36:26;4.93;;;2.80;;
58518;SDS011;44310;48.106;12.008;2022-12-07T13:38:59;5.57;;;2.35;;
58518;SDS011;44310;48.106;12.008;2022-12-07T13:41:36;4.33;;;2.23;;
58518;SDS011;44310;48.106;12.008;2022-12-07T13:44:12;9.95;;;3.50;;
58518;SDS011;44310;48.106;12.008;2022-12-07T13:46:48;5.15;;;2.67;;
58518;SDS011;44310;48.106;12.008;2022-12-07T13:49:46;8.68;;;3.10;;
58518;SDS011;44310;48.106;12.008;2022-12-07T13:52:23;8.00;;;3.00;;
58518;SDS011;44310;48.106;12.008;2022-12-07T13:57:28;5.07;;;2.40;;
58518;SDS011;44310;48.106;12.008;2022-12-07T13:59:57;3.03;;;2.10;;
58518;SDS011;44310;48.106;12.008;2022-12-07T14:02:26;3.85;;;1.95;;
58518;SDS011;44310;48.106;12.008;2022-12-07T14:07:55;3.77;;;2.13;;
58518;SDS011;44310;48.106;12.008;2022-12-07T14:12:52;2.40;;;2.13;;
58518;SDS011;44310;48.106;12.008;2022-12-07T14:15:21;2.47;;;2.00;;
58518;SDS011;44310;48.106;12.008;2022-12-07T14:17:51;3.67;;;2.70;;
58518;SDS011;44310;48.106;12.008;2022-12-07T14:22:56;6.38;;;2.70;;
58518;SDS011;44310;48.106;12.008;2022-12-07T14:25:24;6.32;;;3.00;;
58518;SDS011;44310;48.106;12.008;2022-12-07T14:30:22;4.47;;;2.60;;
58518;SDS011;44310;48.106;12.008;2022-12-07T14:32:53;10.60;;;3.58;;
58518;SDS011;44310;48.106;12.008;2022-12-07T14:35:25;11.32;;;3.40;;
58518;SDS011;44310;48.106;12.008;2022-12-07T14:37:53;11.57;;;3.42;;
58518;SDS011;44310;48.106;12.008;2022-12-07T14:40:24;9.80;;;3.30;;
58518;SDS011;44310;48.106;12.008;2022-12-07T14:42:59;12.80;;;3.53;;
58518;SDS011;44310;48.106;12.008;2022-12-07T14:45:28;10.63;;;3.13;;
58518;SDS011;44310;48.106;12.008;2022-12-07T14:47:56;14.88;;;3.55;;
58518;SDS011;44310;48.106;12.008;2022-12-07T14:51:04;11.48;;;4.00;;
58518;SDS011;44310;48.106;12.008;2022-12-07T14:56:34;32.13;;;7.35;;
58518;SDS011;44310;48.106;12.008;2022-12-07T14:59:01;21.70;;;5.68;;
58518;SDS011;44310;48.106;12.008;2022-12-07T15:01:28;9.45;;;3.47;;
58518;SDS011;44310;48.106;12.008;2022-12-07T15:03:55;14.63;;;4.97;;
58518;SDS011;44310;48.106;12.008;2022-12-07T15:06:22;22.80;;;5.80;;
58518;SDS011;44310;48.106;12.008;2022-12-07T15:08:50;31.23;;;7.28;;
58518;SDS011;44310;48.106;12.008;2022-12-07T15:11:17;9.00;;;3.93;;
58518;SDS011;44310;48.106;12.008;2022-12-07T15:13:44;9.77;;;3.25;;
58518;SDS011;44310;48.106;12.008;2022-12-07T15:16:30;7.65;;;2.67;;
58518;SDS011;44310;48.106;12.008;2022-12-07T15:19:19;9.30;;;3.30;;
58518;SDS011;44310;48.106;12.008;2022-12-07T15:21:55;4.28;;;2.40;;
58518;SDS011;44310;48.106;12.008;2022-12-07T15:24:23;4.65;;;2.60;;
58518;SDS011;44310;48.106;12.008;2022-12-07T15:26:50;5.35;;;2.75;;
58518;SDS011;44310;48.106;12.008;2022-12-07T15:29:18;4.43;;;2.80;;
58518;SDS011;44310;48.106;12.008;2022-12-07T15:31:49;4.95;;;2.72;;
58518;SDS011;44310;48.106;12.008;2022-12-07T15:34:25;3.88;;;2.30;;
58518;SDS011;44310;48.106;12.008;2022-12-07T15:37:01;4.05;;;2.50;;
58518;SDS011;44310;48.106;12.008;2022-12-07T15:39:29;4.13;;;2.50;;
58518;SDS011;44310;48.106;12.008;2022-12-07T15:41:56;4.53;;;2.45;;
58518;SDS011;44310;48.106;12.008;2022-12-07T15:44:24;5.85;;;2.60;;
58518;SDS011;44310;48.106;12.008;2022-12-07T15:47:09;3.85;;;1.90;;
58518;SDS011;44310;48.106;12.008;2022-12-07T15:49:36;10.60;;;3.50;;
58518;SDS011;44310;48.106;12.008;2022-12-07T15:52:04;12.70;;;3.53;;
58518;SDS011;44310;48.106;12.008;2022-12-07T15:54:31;25.87;;;6.33;;
58518;SDS011;44310;48.106;12.008;2022-12-07T15:56:58;17.15;;;5.60;;
58518;SDS011;44310;48.106;12.008;2022-12-07T15:59:26;78.43;;;16.38;;
58518;SDS011;44310;48.106;12.008;2022-12-07T16:01:54;113.43;;;20.90;;
58518;SDS011;44310;48.106;12.008;2022-12-07T16:04:22;63.53;;;13.02;;
58518;SDS011;44310;48.106;12.008;2022-12-07T16:06:49;70.88;;;14.75;;
58518;SDS011;44310;48.106;12.008;2022-12-07T16:09:18;64.53;;;12.18;;
58518;SDS011;44310;48.106;12.008;2022-12-07T16:11:45;43.72;;;10.60;;
58518;SDS011;44310;48.106;12.008;2022-12-07T16:14:12;45.38;;;10.77;;
58518;SDS011;44310;48.106;12.008;2022-12-07T16:16:40;42.13;;;8.85;;
58518;SDS011;44310;48.106;12.008;2022-12-07T16:19:11;34.10;;;8.20;;
58518;SDS011;44310;48.106;12.008;2022-12-07T16:21:38;49.83;;;11.27;;
58518;SDS011;44310;48.106;12.008;2022-12-07T16:24:05;46.72;;;9.15;;
58518;SDS011;44310;48.106;12.008;2022-12-07T16:26:33;28.40;;;7.50;;
58518;SDS011;44310;48.106;12.008;2022-12-07T16:29:00;37.45;;;8.80;;
58518;SDS011;44310;48.106;12.008;2022-12-07T16:31:28;35.35;;;7.57;;
58518;SDS011;44310;48.106;12.008;2022-12-07T16:33:56;30.35;;;7.35;;
58518;SDS011;44310;48.106;12.008;2022-12-07T16:36:24;35.80;;;8.55;;
58518;SDS011;44310;48.106;12.008;2022-12-07T16:39:13;27.35;;;7.30;;
58518;SDS011;44310;48.106;12.008;2022-12-07T16:41:40;27.23;;;6.95;;